Bay Point, New York
Current Conditions -  °F | °C
As of 11:53 AM on Saturday 20 Dec 2014 (Local Time) from KFOK Reporting Station
Overcast Overcast  
Wind Chill: 27°   Ceiling: 2200
Heat Index: 33°   Visibility: 10mi
Dew Point: 23°   Wind: 7mph
Humidity: 66%   Direction: 340°NNW
Pressure: 30.27"   Gusts: NA
Location:  40.9692°N, 72.306°W
Report Text: KFOK 201653Z 34006KT 10SM OVC022 01/M05 A3027 RMK AO2 SLP251 T00061050
Loading
Personal Weather Stations






























Interactive Weather Map New forecast layout! Learn more

10-Day Weather Forecast

Advertisements
Track Severe Weather on mobile